createdAt,value
2022-10-13T00:01:23.913Z,77.22
2022-10-13T00:03:52.760Z,76.94
2022-10-13T00:06:26.748Z,76.71
2022-10-13T00:08:56.813Z,76.33
2022-10-13T00:11:28.073Z,76.98
2022-10-13T00:14:03.001Z,76.74
2022-10-13T00:16:33.054Z,77.03
2022-10-13T00:19:02.218Z,76.98
2022-10-13T00:21:30.586Z,76.92
2022-10-13T00:23:58.775Z,77.23
2022-10-13T00:26:27.767Z,77.59
2022-10-13T00:28:56.717Z,77.87
2022-10-13T00:31:31.381Z,77.71
2022-10-13T00:34:01.717Z,77.93
2022-10-13T00:36:30.265Z,77.99
2022-10-13T00:38:58.967Z,78.45
2022-10-13T00:41:27.577Z,78.44
2022-10-13T00:44:05.201Z,78.69
2022-10-13T00:46:37.102Z,78.53
2022-10-13T00:49:10.156Z,78.73
2022-10-13T00:51:46.673Z,78.98
2022-10-13T00:54:19.559Z,79.19
2022-10-13T00:56:50.861Z,79.24
2022-10-13T00:59:26.720Z,78.54
2022-10-13T01:01:57.687Z,78.69
2022-10-13T01:04:32.132Z,78.88
2022-10-13T01:07:02.718Z,78.54
2022-10-13T01:09:37.662Z,78.73
2022-10-13T01:12:11.733Z,78.72
2022-10-13T01:14:45.601Z,78.94
2022-10-13T01:17:27.096Z,79.06
2022-10-13T01:20:35.709Z,78.88
2022-10-13T01:23:24.017Z,79.20
2022-10-13T01:26:33.530Z,79.05
2022-10-13T01:29:07.675Z,79.12
2022-10-13T01:31:51.856Z,78.82
2022-10-13T01:34:52.645Z,79.12
2022-10-13T01:37:54.405Z,79.24
2022-10-13T01:40:53.320Z,79.22
2022-10-13T01:43:31.200Z,79.20
2022-10-13T01:46:08.453Z,79.45
2022-10-13T01:48:39.796Z,79.58
2022-10-13T01:51:11.859Z,80.17
2022-10-13T01:53:40.391Z,80.23
2022-10-13T01:56:08.563Z,80.17
2022-10-13T01:58:38.532Z,80.39
2022-10-13T02:01:45.233Z,80.20
2022-10-13T02:04:37.561Z,80.08
2022-10-13T02:07:20.101Z,80.01
2022-10-13T02:10:02.573Z,80.51
2022-10-13T02:12:42.368Z,81.20
2022-10-13T02:15:16.867Z,81.14
2022-10-13T02:17:45.174Z,81.26
2022-10-13T02:20:16.782Z,81.23
2022-10-13T02:22:50.912Z,81.31
